Terminal Aerodrome Forecast
Issued by NWS

Home | Current Version | Previous Version | Graphics & Text | Print | Product List | Glossary On
Versions: 1 2 3 4 5 6 7 8 9 10 11 12 13 14 15 16 17 18 19
000
FTUS41 KCLE 232330
TAFFDY
TAF
KFDY 232330Z 2400/2424 16012KT 6SM -RA OVC035
      TEMPO 2400/2403 5SM -SHRA BKN025
     FM240300 13010KT 5SM -SHRA OVC025
     FM241400 11012KT P6SM VCSH OVC012=

USA.gov is the U.S. government's official web portal to all federal, state and local government web resources and services.